Terminal Aerodrome Forecast
Issued by NWS

Home | Current Version | Previous Version | Text Only | Print | Product List | Glossary On
Versions: 1 2 3 4 5 6 7 8 9 10 11 12 13 14 15 16 17 18 19
513
FTUS43 KDVN 241058 AAB
TAFCID
TAF AMD
KCID 241058Z 2411/2506 16006KT P6SM VCSH BKN060
     FM241500 19009KT P6SM BKN040
     FM242200 18008KT P6SM VCTS BKN050CB
     FM250100 14004KT P6SM BKN070=

USA.gov is the U.S. government's official web portal to all federal, state and local government web resources and services.